sensor_id;sensor_type;location;lat;lon;timestamp;P1;durP1;ratioP1;P2;durP2;ratioP2
81124;SDS011;71444;52.114;5.424;2023-07-13T00:01:21;9.18;;;1.83;;
81124;SDS011;71444;52.114;5.424;2023-07-13T00:04:08;9.93;;;1.75;;
81124;SDS011;71444;52.114;5.424;2023-07-13T00:06:52;7.18;;;2.10;;
81124;SDS011;71444;52.114;5.424;2023-07-13T00:09:33;10.15;;;2.22;;
81124;SDS011;71444;52.114;5.424;2023-07-13T00:12:27;8.00;;;1.98;;
81124;SDS011;71444;52.114;5.424;2023-07-13T00:15:17;7.57;;;1.67;;
81124;SDS011;71444;52.114;5.424;2023-07-13T00:18:05;7.75;;;1.60;;
81124;SDS011;71444;52.114;5.424;2023-07-13T00:20:43;6.53;;;1.85;;
81124;SDS011;71444;52.114;5.424;2023-07-13T00:23:28;6.90;;;1.70;;
81124;SDS011;71444;52.114;5.424;2023-07-13T00:26:13;6.50;;;1.85;;
81124;SDS011;71444;52.114;5.424;2023-07-13T00:28:53;5.28;;;1.40;;
81124;SDS011;71444;52.114;5.424;2023-07-13T00:31:38;5.65;;;1.63;;
81124;SDS011;71444;52.114;5.424;2023-07-13T00:34:24;7.53;;;1.55;;
81124;SDS011;71444;52.114;5.424;2023-07-13T00:37:06;10.07;;;2.65;;
81124;SDS011;71444;52.114;5.424;2023-07-13T00:39:47;7.18;;;1.70;;
81124;SDS011;71444;52.114;5.424;2023-07-13T00:42:27;8.13;;;1.88;;
81124;SDS011;71444;52.114;5.424;2023-07-13T00:47:53;6.65;;;1.45;;
81124;SDS011;71444;52.114;5.424;2023-07-13T00:50:43;5.88;;;1.42;;
81124;SDS011;71444;52.114;5.424;2023-07-13T00:53:29;6.88;;;2.05;;
81124;SDS011;71444;52.114;5.424;2023-07-13T00:56:20;9.45;;;1.73;;
81124;SDS011;71444;52.114;5.424;2023-07-13T00:59:05;4.85;;;1.52;;
81124;SDS011;71444;52.114;5.424;2023-07-13T01:01:49;7.57;;;1.80;;
81124;SDS011;71444;52.114;5.424;2023-07-13T01:04:30;8.60;;;1.67;;
81124;SDS011;71444;52.114;5.424;2023-07-13T01:07:10;6.93;;;1.60;;
81124;SDS011;71444;52.114;5.424;2023-07-13T01:09:57;5.30;;;1.50;;
81124;SDS011;71444;52.114;5.424;2023-07-13T01:12:40;6.25;;;1.60;;
81124;SDS011;71444;52.114;5.424;2023-07-13T01:15:36;6.00;;;1.67;;
81124;SDS011;71444;52.114;5.424;2023-07-13T01:18:27;5.70;;;1.40;;
81124;SDS011;71444;52.114;5.424;2023-07-13T01:21:20;8.25;;;1.63;;
81124;SDS011;71444;52.114;5.424;2023-07-13T01:24:04;6.15;;;1.92;;
81124;SDS011;71444;52.114;5.424;2023-07-13T01:26:36;7.43;;;1.60;;
81124;SDS011;71444;52.114;5.424;2023-07-13T01:29:21;5.75;;;1.40;;
81124;SDS011;71444;52.114;5.424;2023-07-13T01:32:01;5.60;;;1.63;;
81124;SDS011;71444;52.114;5.424;2023-07-13T01:34:41;6.78;;;1.67;;
81124;SDS011;71444;52.114;5.424;2023-07-13T01:37:23;6.35;;;1.58;;
81124;SDS011;71444;52.114;5.424;2023-07-13T01:40:11;7.65;;;1.63;;
81124;SDS011;71444;52.114;5.424;2023-07-13T01:42:51;6.32;;;1.92;;
81124;SDS011;71444;52.114;5.424;2023-07-13T01:45:39;5.40;;;1.67;;
81124;SDS011;71444;52.114;5.424;2023-07-13T01:51:06;9.52;;;2.30;;
81124;SDS011;71444;52.114;5.424;2023-07-13T01:53:47;5.95;;;1.70;;
81124;SDS011;71444;52.114;5.424;2023-07-13T01:56:32;6.22;;;1.73;;
81124;SDS011;71444;52.114;5.424;2023-07-13T01:59:12;6.10;;;1.90;;
81124;SDS011;71444;52.114;5.424;2023-07-13T02:01:59;8.50;;;1.85;;
81124;SDS011;71444;52.114;5.424;2023-07-13T02:04:43;5.45;;;1.70;;
81124;SDS011;71444;52.114;5.424;2023-07-13T02:07:23;7.90;;;1.77;;
81124;SDS011;71444;52.114;5.424;2023-07-13T02:10:04;7.32;;;1.83;;
81124;SDS011;71444;52.114;5.424;2023-07-13T02:12:48;5.20;;;1.67;;
81124;SDS011;71444;52.114;5.424;2023-07-13T02:15:31;4.97;;;1.55;;
81124;SDS011;71444;52.114;5.424;2023-07-13T02:18:16;6.03;;;2.05;;
81124;SDS011;71444;52.114;5.424;2023-07-13T02:21:05;5.90;;;2.15;;
81124;SDS011;71444;52.114;5.424;2023-07-13T02:23:45;6.80;;;1.63;;
81124;SDS011;71444;52.114;5.424;2023-07-13T02:26:28;8.38;;;1.80;;
81124;SDS011;71444;52.114;5.424;2023-07-13T02:29:09;10.10;;;1.95;;
81124;SDS011;71444;52.114;5.424;2023-07-13T02:31:49;7.20;;;2.03;;
81124;SDS011;71444;52.114;5.424;2023-07-13T02:34:34;8.68;;;2.47;;
81124;SDS011;71444;52.114;5.424;2023-07-13T02:37:17;6.82;;;1.73;;
81124;SDS011;71444;52.114;5.424;2023-07-13T02:40:01;10.65;;;1.70;;
81124;SDS011;71444;52.114;5.424;2023-07-13T02:42:47;9.05;;;1.90;;
81124;SDS011;71444;52.114;5.424;2023-07-13T02:45:34;5.13;;;1.80;;
81124;SDS011;71444;52.114;5.424;2023-07-13T02:48:21;7.75;;;1.95;;
81124;SDS011;71444;52.114;5.424;2023-07-13T02:51:06;10.75;;;2.47;;
81124;SDS011;71444;52.114;5.424;2023-07-13T02:53:58;7.43;;;2.25;;
81124;SDS011;71444;52.114;5.424;2023-07-13T02:56:52;6.43;;;1.85;;
81124;SDS011;71444;52.114;5.424;2023-07-13T02:59:32;6.68;;;1.92;;
81124;SDS011;71444;52.114;5.424;2023-07-13T03:02:16;8.18;;;2.10;;
81124;SDS011;71444;52.114;5.424;2023-07-13T03:05:00;7.53;;;1.88;;
81124;SDS011;71444;52.114;5.424;2023-07-13T03:07:43;6.85;;;2.05;;
81124;SDS011;71444;52.114;5.424;2023-07-13T03:10:32;9.40;;;2.17;;
81124;SDS011;71444;52.114;5.424;2023-07-13T03:13:21;9.43;;;2.17;;
81124;SDS011;71444;52.114;5.424;2023-07-13T03:16:01;10.55;;;2.13;;
81124;SDS011;71444;52.114;5.424;2023-07-13T03:18:46;7.55;;;2.10;;
81124;SDS011;71444;52.114;5.424;2023-07-13T03:21:28;6.85;;;2.17;;
81124;SDS011;71444;52.114;5.424;2023-07-13T03:24:08;8.27;;;2.55;;
81124;SDS011;71444;52.114;5.424;2023-07-13T03:26:52;6.82;;;2.15;;
81124;SDS011;71444;52.114;5.424;2023-07-13T03:29:38;8.85;;;2.45;;
81124;SDS011;71444;52.114;5.424;2023-07-13T03:32:19;7.72;;;1.90;;
81124;SDS011;71444;52.114;5.424;2023-07-13T03:35:06;9.57;;;2.10;;
81124;SDS011;71444;52.114;5.424;2023-07-13T03:37:57;7.60;;;2.53;;
81124;SDS011;71444;52.114;5.424;2023-07-13T03:40:40;8.68;;;2.05;;
81124;SDS011;71444;52.114;5.424;2023-07-13T03:43:21;11.48;;;2.63;;
81124;SDS011;71444;52.114;5.424;2023-07-13T03:46:01;9.45;;;2.28;;
81124;SDS011;71444;52.114;5.424;2023-07-13T03:48:49;8.40;;;2.47;;
81124;SDS011;71444;52.114;5.424;2023-07-13T03:51:35;8.82;;;2.42;;
81124;SDS011;71444;52.114;5.424;2023-07-13T03:54:16;8.10;;;2.17;;
81124;SDS011;71444;52.114;5.424;2023-07-13T03:56:56;9.10;;;2.30;;
81124;SDS011;71444;52.114;5.424;2023-07-13T03:59:43;9.40;;;2.63;;
81124;SDS011;71444;52.114;5.424;2023-07-13T04:02:31;6.70;;;2.20;;
81124;SDS011;71444;52.114;5.424;2023-07-13T04:05:20;11.07;;;2.72;;
81124;SDS011;71444;52.114;5.424;2023-07-13T04:08:03;11.32;;;2.70;;
81124;SDS011;71444;52.114;5.424;2023-07-13T04:10:51;6.97;;;2.35;;
81124;SDS011;71444;52.114;5.424;2023-07-13T04:13:35;11.05;;;2.22;;
81124;SDS011;71444;52.114;5.424;2023-07-13T04:16:17;12.52;;;2.75;;
81124;SDS011;71444;52.114;5.424;2023-07-13T04:19:05;11.32;;;2.65;;
81124;SDS011;71444;52.114;5.424;2023-07-13T04:21:46;9.93;;;2.63;;
81124;SDS011;71444;52.114;5.424;2023-07-13T04:24:30;11.50;;;2.95;;
81124;SDS011;71444;52.114;5.424;2023-07-13T04:27:22;9.85;;;2.42;;
81124;SDS011;71444;52.114;5.424;2023-07-13T04:30:03;9.60;;;2.60;;
81124;SDS011;71444;52.114;5.424;2023-07-13T04:32:45;9.15;;;2.60;;
81124;SDS011;71444;52.114;5.424;2023-07-13T04:35:29;9.98;;;2.63;;
81124;SDS011;71444;52.114;5.424;2023-07-13T04:37:59;7.90;;;2.97;;
81124;SDS011;71444;52.114;5.424;2023-07-13T04:43:30;9.40;;;2.90;;
81124;SDS011;71444;52.114;5.424;2023-07-13T04:46:15;12.68;;;2.90;;
81124;SDS011;71444;52.114;5.424;2023-07-13T04:49:05;11.85;;;2.65;;
81124;SDS011;71444;52.114;5.424;2023-07-13T04:51:48;7.07;;;2.67;;
81124;SDS011;71444;52.114;5.424;2023-07-13T04:54:35;13.90;;;3.30;;
81124;SDS011;71444;52.114;5.424;2023-07-13T04:57:18;15.00;;;3.00;;
81124;SDS011;71444;52.114;5.424;2023-07-13T05:00:09;10.15;;;2.72;;
81124;SDS011;71444;52.114;5.424;2023-07-13T05:02:58;12.13;;;3.53;;
81124;SDS011;71444;52.114;5.424;2023-07-13T05:08:24;9.13;;;3.35;;
81124;SDS011;71444;52.114;5.424;2023-07-13T05:11:14;11.75;;;3.05;;
81124;SDS011;71444;52.114;5.424;2023-07-13T05:13:59;13.25;;;3.10;;
81124;SDS011;71444;52.114;5.424;2023-07-13T05:16:41;15.15;;;3.28;;
81124;SDS011;71444;52.114;5.424;2023-07-13T05:19:26;10.27;;;3.08;;
81124;SDS011;71444;52.114;5.424;2023-07-13T05:22:13;13.48;;;3.35;;
81124;SDS011;71444;52.114;5.424;2023-07-13T05:25:04;13.05;;;3.30;;
81124;SDS011;71444;52.114;5.424;2023-07-13T05:27:50;12.55;;;3.42;;
81124;SDS011;71444;52.114;5.424;2023-07-13T05:30:36;12.13;;;3.55;;
81124;SDS011;71444;52.114;5.424;2023-07-13T05:33:16;16.08;;;3.60;;
81124;SDS011;71444;52.114;5.424;2023-07-13T05:35:59;9.50;;;3.33;;
81124;SDS011;71444;52.114;5.424;2023-07-13T05:38:39;12.20;;;3.70;;
81124;SDS011;71444;52.114;5.424;2023-07-13T05:41:24;10.25;;;4.20;;
81124;SDS011;71444;52.114;5.424;2023-07-13T05:44:04;16.63;;;4.40;;
81124;SDS011;71444;52.114;5.424;2023-07-13T05:49:42;16.77;;;4.40;;
81124;SDS011;71444;52.114;5.424;2023-07-13T05:55:19;15.82;;;4.97;;
81124;SDS011;71444;52.114;5.424;2023-07-13T05:58:09;18.20;;;6.63;;
81124;SDS011;71444;52.114;5.424;2023-07-13T06:01:03;15.55;;;5.57;;
81124;SDS011;71444;52.114;5.424;2023-07-13T06:03:57;18.60;;;5.72;;
81124;SDS011;71444;52.114;5.424;2023-07-13T06:06:45;13.23;;;4.75;;
81124;SDS011;71444;52.114;5.424;2023-07-13T06:09:36;14.52;;;5.22;;
81124;SDS011;71444;52.114;5.424;2023-07-13T06:12:25;17.58;;;5.90;;
81124;SDS011;71444;52.114;5.424;2023-07-13T06:15:14;16.77;;;5.88;;
81124;SDS011;71444;52.114;5.424;2023-07-13T06:18:02;17.98;;;5.60;;
81124;SDS011;71444;52.114;5.424;2023-07-13T06:20:52;15.23;;;5.20;;
81124;SDS011;71444;52.114;5.424;2023-07-13T06:23:40;17.13;;;6.13;;
81124;SDS011;71444;52.114;5.424;2023-07-13T06:26:34;14.40;;;5.65;;
81124;SDS011;71444;52.114;5.424;2023-07-13T06:29:25;13.60;;;5.47;;
81124;SDS011;71444;52.114;5.424;2023-07-13T06:32:14;15.93;;;5.75;;
81124;SDS011;71444;52.114;5.424;2023-07-13T06:35:02;19.75;;;6.38;;
81124;SDS011;71444;52.114;5.424;2023-07-13T06:37:32;21.30;;;6.53;;
81124;SDS011;71444;52.114;5.424;2023-07-13T06:40:21;15.93;;;6.00;;
81124;SDS011;71444;52.114;5.424;2023-07-13T06:45:57;17.67;;;5.68;;
81124;SDS011;71444;52.114;5.424;2023-07-13T06:48:46;18.75;;;6.28;;
81124;SDS011;71444;52.114;5.424;2023-07-13T06:51:34;16.92;;;6.13;;
81124;SDS011;71444;52.114;5.424;2023-07-13T06:54:22;17.42;;;6.30;;
81124;SDS011;71444;52.114;5.424;2023-07-13T06:57:11;14.57;;;6.30;;
81124;SDS011;71444;52.114;5.424;2023-07-13T06:59:59;18.90;;;6.93;;
81124;SDS011;71444;52.114;5.424;2023-07-13T07:02:48;15.23;;;6.20;;
81124;SDS011;71444;52.114;5.424;2023-07-13T07:05:36;15.55;;;6.78;;
81124;SDS011;71444;52.114;5.424;2023-07-13T07:08:24;16.67;;;6.82;;
81124;SDS011;71444;52.114;5.424;2023-07-13T07:11:13;12.60;;;6.90;;
81124;SDS011;71444;52.114;5.424;2023-07-13T07:14:05;20.02;;;7.45;;
81124;SDS011;71444;52.114;5.424;2023-07-13T07:16:54;14.65;;;6.85;;
81124;SDS011;71444;52.114;5.424;2023-07-13T07:19:42;15.52;;;6.60;;
81124;SDS011;71444;52.114;5.424;2023-07-13T07:22:34;15.27;;;7.13;;
81124;SDS011;71444;52.114;5.424;2023-07-13T07:25:22;16.80;;;7.22;;
81124;SDS011;71444;52.114;5.424;2023-07-13T07:28:11;15.43;;;6.82;;
81124;SDS011;71444;52.114;5.424;2023-07-13T07:31:04;17.10;;;7.10;;
81124;SDS011;71444;52.114;5.424;2023-07-13T07:33:53;17.30;;;7.28;;
81124;SDS011;71444;52.114;5.424;2023-07-13T07:36:42;21.30;;;8.85;;
81124;SDS011;71444;52.114;5.424;2023-07-13T07:39:30;15.85;;;7.63;;
81124;SDS011;71444;52.114;5.424;2023-07-13T07:42:19;21.10;;;7.93;;
81124;SDS011;71444;52.114;5.424;2023-07-13T07:45:07;16.90;;;7.70;;
81124;SDS011;71444;52.114;5.424;2023-07-13T07:47:58;19.63;;;8.70;;
81124;SDS011;71444;52.114;5.424;2023-07-13T07:50:46;16.55;;;6.85;;
81124;SDS011;71444;52.114;5.424;2023-07-13T07:53:34;19.42;;;8.00;;
81124;SDS011;71444;52.114;5.424;2023-07-13T07:56:22;16.85;;;7.32;;
81124;SDS011;71444;52.114;5.424;2023-07-13T07:59:11;18.02;;;6.93;;
81124;SDS011;71444;52.114;5.424;2023-07-13T08:01:59;18.65;;;7.30;;
81124;SDS011;71444;52.114;5.424;2023-07-13T08:04:51;16.15;;;7.53;;
81124;SDS011;71444;52.114;5.424;2023-07-13T08:07:40;14.07;;;6.85;;
81124;SDS011;71444;52.114;5.424;2023-07-13T08:10:28;13.68;;;6.63;;
81124;SDS011;71444;52.114;5.424;2023-07-13T08:13:16;14.02;;;6.55;;
81124;SDS011;71444;52.114;5.424;2023-07-13T08:16:05;15.27;;;6.45;;
81124;SDS011;71444;52.114;5.424;2023-07-13T08:18:53;16.67;;;6.53;;
81124;SDS011;71444;52.114;5.424;2023-07-13T08:21:41;11.52;;;6.13;;
81124;SDS011;71444;52.114;5.424;2023-07-13T08:24:30;17.05;;;5.78;;
81124;SDS011;71444;52.114;5.424;2023-07-13T08:27:18;15.05;;;6.00;;
81124;SDS011;71444;52.114;5.424;2023-07-13T08:30:06;12.82;;;5.63;;
81124;SDS011;71444;52.114;5.424;2023-07-13T08:32:55;11.70;;;5.05;;
81124;SDS011;71444;52.114;5.424;2023-07-13T08:35:45;12.85;;;4.60;;
81124;SDS011;71444;52.114;5.424;2023-07-13T08:38:35;13.05;;;4.57;;
81124;SDS011;71444;52.114;5.424;2023-07-13T08:41:25;10.93;;;4.20;;
81124;SDS011;71444;52.114;5.424;2023-07-13T08:44:07;13.65;;;4.15;;
81124;SDS011;71444;52.114;5.424;2023-07-13T08:47:17;10.07;;;3.13;;
81124;SDS011;71444;52.114;5.424;2023-07-13T08:50:12;6.78;;;2.33;;
81124;SDS011;71444;52.114;5.424;2023-07-13T08:53:07;6.05;;;2.33;;
81124;SDS011;71444;52.114;5.424;2023-07-13T08:56:00;5.82;;;2.33;;
81124;SDS011;71444;52.114;5.424;2023-07-13T08:58:53;6.95;;;2.28;;
81124;SDS011;71444;52.114;5.424;2023-07-13T09:02:00;6.15;;;2.17;;
81124;SDS011;71444;52.114;5.424;2023-07-13T09:05:20;5.45;;;2.10;;
81124;SDS011;71444;52.114;5.424;2023-07-13T09:08:30;7.43;;;2.22;;
81124;SDS011;71444;52.114;5.424;2023-07-13T09:12:33;8.55;;;2.50;;
81124;SDS011;71444;52.114;5.424;2023-07-13T09:15:25;7.13;;;2.88;;
81124;SDS011;71444;52.114;5.424;2023-07-13T09:18:22;6.97;;;2.40;;
81124;SDS011;71444;52.114;5.424;2023-07-13T09:21:25;5.45;;;2.05;;
81124;SDS011;71444;52.114;5.424;2023-07-13T09:27:22;8.80;;;2.55;;
81124;SDS011;71444;52.114;5.424;2023-07-13T09:30:21;8.38;;;2.28;;
81124;SDS011;71444;52.114;5.424;2023-07-13T09:33:20;5.80;;;2.15;;
81124;SDS011;71444;52.114;5.424;2023-07-13T09:36:05;7.43;;;2.10;;
81124;SDS011;71444;52.114;5.424;2023-07-13T09:39:34;5.22;;;2.40;;
81124;SDS011;71444;52.114;5.424;2023-07-13T09:42:21;6.10;;;2.00;;
81124;SDS011;71444;52.114;5.424;2023-07-13T09:45:02;6.22;;;2.40;;
81124;SDS011;71444;52.114;5.424;2023-07-13T09:47:44;6.47;;;2.10;;
81124;SDS011;71444;52.114;5.424;2023-07-13T09:50:24;5.78;;;2.15;;
81124;SDS011;71444;52.114;5.424;2023-07-13T09:53:19;7.13;;;2.15;;
81124;SDS011;71444;52.114;5.424;2023-07-13T09:56:18;7.55;;;2.08;;
81124;SDS011;71444;52.114;5.424;2023-07-13T09:59:20;10.18;;;2.42;;
81124;SDS011;71444;52.114;5.424;2023-07-13T10:05:37;7.43;;;2.40;;
81124;SDS011;71444;52.114;5.424;2023-07-13T10:08:29;12.07;;;2.80;;
81124;SDS011;71444;52.114;5.424;2023-07-13T10:11:20;8.90;;;2.80;;
81124;SDS011;71444;52.114;5.424;2023-07-13T10:14:21;5.70;;;2.80;;
81124;SDS011;71444;52.114;5.424;2023-07-13T10:17:08;4.93;;;2.33;;
81124;SDS011;71444;52.114;5.424;2023-07-13T10:19:52;6.57;;;2.78;;
81124;SDS011;71444;52.114;5.424;2023-07-13T10:22:36;9.10;;;3.38;;
81124;SDS011;71444;52.114;5.424;2023-07-13T10:25:25;7.35;;;2.65;;
81124;SDS011;71444;52.114;5.424;2023-07-13T10:31:11;7.22;;;2.35;;
81124;SDS011;71444;52.114;5.424;2023-07-13T10:33:54;9.48;;;2.80;;
81124;SDS011;71444;52.114;5.424;2023-07-13T10:36:38;6.03;;;2.40;;
81124;SDS011;71444;52.114;5.424;2023-07-13T10:39:27;6.88;;;2.70;;
81124;SDS011;71444;52.114;5.424;2023-07-13T10:42:39;3.38;;;1.63;;
81124;SDS011;71444;52.114;5.424;2023-07-13T10:45:36;8.10;;;2.13;;
81124;SDS011;71444;52.114;5.424;2023-07-13T10:48:16;12.57;;;2.20;;
81124;SDS011;71444;52.114;5.424;2023-07-13T10:50:58;6.90;;;2.00;;
81124;SDS011;71444;52.114;5.424;2023-07-13T10:53:39;7.22;;;2.20;;
81124;SDS011;71444;52.114;5.424;2023-07-13T10:56:29;4.28;;;2.10;;
81124;SDS011;71444;52.114;5.424;2023-07-13T10:59:17;5.18;;;2.05;;
81124;SDS011;71444;52.114;5.424;2023-07-13T11:14:26;4.13;;;1.88;;
81124;SDS011;71444;52.114;5.424;2023-07-13T12:17:45;9.65;;;4.45;;
81124;SDS011;71444;52.114;5.424;2023-07-13T12:20:35;8.52;;;2.38;;
81124;SDS011;71444;52.114;5.424;2023-07-13T12:23:28;6.93;;;2.60;;
81124;SDS011;71444;52.114;5.424;2023-07-13T12:26:14;8.45;;;2.50;;
81124;SDS011;71444;52.114;5.424;2023-07-13T12:29:01;6.22;;;2.45;;
81124;SDS011;71444;52.114;5.424;2023-07-13T12:31:46;8.02;;;2.38;;
81124;SDS011;71444;52.114;5.424;2023-07-13T12:34:49;5.03;;;2.15;;
81124;SDS011;71444;52.114;5.424;2023-07-13T13:10:13;6.57;;;1.75;;
81124;SDS011;71444;52.114;5.424;2023-07-13T13:13:02;5.55;;;2.20;;
81124;SDS011;71444;52.114;5.424;2023-07-13T13:15:50;5.82;;;1.98;;
81124;SDS011;71444;52.114;5.424;2023-07-13T13:18:21;8.02;;;2.13;;
81124;SDS011;71444;52.114;5.424;2023-07-13T13:21:11;4.22;;;2.10;;
81124;SDS011;71444;52.114;5.424;2023-07-13T13:23:43;4.78;;;1.90;;
81124;SDS011;71444;52.114;5.424;2023-07-13T13:26:32;7.05;;;2.00;;
81124;SDS011;71444;52.114;5.424;2023-07-13T13:29:22;5.43;;;2.08;;
81124;SDS011;71444;52.114;5.424;2023-07-13T13:31:56;6.72;;;1.83;;
81124;SDS011;71444;52.114;5.424;2023-07-13T13:34:44;6.00;;;1.95;;
81124;SDS011;71444;52.114;5.424;2023-07-13T13:37:33;5.50;;;1.90;;
81124;SDS011;71444;52.114;5.424;2023-07-13T13:40:22;6.78;;;2.00;;
81124;SDS011;71444;52.114;5.424;2023-07-13T13:43:17;6.32;;;2.10;;
81124;SDS011;71444;52.114;5.424;2023-07-13T13:46:15;5.45;;;1.85;;
81124;SDS011;71444;52.114;5.424;2023-07-13T13:49:12;4.43;;;1.70;;
81124;SDS011;71444;52.114;5.424;2023-07-13T13:52:12;5.00;;;1.95;;
81124;SDS011;71444;52.114;5.424;2023-07-13T13:54:42;5.25;;;1.73;;
81124;SDS011;71444;52.114;5.424;2023-07-13T13:57:33;6.88;;;2.10;;
81124;SDS011;71444;52.114;5.424;2023-07-13T14:00:21;5.82;;;2.17;;
81124;SDS011;71444;52.114;5.424;2023-07-13T14:02:51;6.20;;;1.90;;
81124;SDS011;71444;52.114;5.424;2023-07-13T14:05:24;5.78;;;1.90;;
81124;SDS011;71444;52.114;5.424;2023-07-13T14:08:17;5.50;;;1.92;;
81124;SDS011;71444;52.114;5.424;2023-07-13T14:10:49;5.18;;;2.05;;
81124;SDS011;71444;52.114;5.424;2023-07-13T14:13:36;5.25;;;2.33;;
81124;SDS011;71444;52.114;5.424;2023-07-13T14:16:33;6.50;;;1.88;;
81124;SDS011;71444;52.114;5.424;2023-07-13T14:19:24;5.13;;;2.08;;
81124;SDS011;71444;52.114;5.424;2023-07-13T14:21:56;6.15;;;2.25;;
81124;SDS011;71444;52.114;5.424;2023-07-13T14:24:24;5.65;;;2.03;;
81124;SDS011;71444;52.114;5.424;2023-07-13T14:27:14;6.32;;;2.05;;
81124;SDS011;71444;52.114;5.424;2023-07-13T14:29:44;5.35;;;1.80;;
81124;SDS011;71444;52.114;5.424;2023-07-13T14:32:32;7.53;;;2.22;;
81124;SDS011;71444;52.114;5.424;2023-07-13T14:35:21;5.47;;;2.00;;
81124;SDS011;71444;52.114;5.424;2023-07-13T14:38:11;4.97;;;2.00;;
81124;SDS011;71444;52.114;5.424;2023-07-13T14:41:04;5.88;;;1.90;;
81124;SDS011;71444;52.114;5.424;2023-07-13T14:43:56;11.32;;;2.30;;
81124;SDS011;71444;52.114;5.424;2023-07-13T14:46:28;5.88;;;1.95;;
81124;SDS011;71444;52.114;5.424;2023-07-13T14:52:25;7.63;;;1.98;;
81124;SDS011;71444;52.114;5.424;2023-07-13T14:55:15;6.18;;;2.33;;
81124;SDS011;71444;52.114;5.424;2023-07-13T14:58:06;8.13;;;2.40;;
81124;SDS011;71444;52.114;5.424;2023-07-13T15:00:49;6.95;;;2.20;;
81124;SDS011;71444;52.114;5.424;2023-07-13T15:03:31;4.65;;;1.80;;
81124;SDS011;71444;52.114;5.424;2023-07-13T15:06:11;5.43;;;2.00;;
81124;SDS011;71444;52.114;5.424;2023-07-13T15:08:55;5.38;;;1.77;;
81124;SDS011;71444;52.114;5.424;2023-07-13T15:11:43;6.45;;;1.92;;
81124;SDS011;71444;52.114;5.424;2023-07-13T15:14:32;5.03;;;1.88;;
81124;SDS011;71444;52.114;5.424;2023-07-13T15:17:26;6.50;;;1.80;;
81124;SDS011;71444;52.114;5.424;2023-07-13T15:23:24;5.72;;;1.70;;
81124;SDS011;71444;52.114;5.424;2023-07-13T15:26:03;4.63;;;1.70;;
81124;SDS011;71444;52.114;5.424;2023-07-13T15:28:46;5.28;;;1.92;;
81124;SDS011;71444;52.114;5.424;2023-07-13T15:31:22;5.43;;;1.80;;
81124;SDS011;71444;52.114;5.424;2023-07-13T15:34:14;4.78;;;1.58;;
81124;SDS011;71444;52.114;5.424;2023-07-13T15:37:03;6.68;;;1.90;;
81124;SDS011;71444;52.114;5.424;2023-07-13T15:39:53;3.95;;;1.70;;
81124;SDS011;71444;52.114;5.424;2023-07-13T15:42:32;7.18;;;2.05;;
81124;SDS011;71444;52.114;5.424;2023-07-13T15:45:18;6.88;;;1.75;;
81124;SDS011;71444;52.114;5.424;2023-07-13T15:48:14;6.93;;;1.80;;
81124;SDS011;71444;52.114;5.424;2023-07-13T15:50:55;4.93;;;1.60;;
81124;SDS011;71444;52.114;5.424;2023-07-13T15:53:42;4.85;;;1.58;;
81124;SDS011;71444;52.114;5.424;2023-07-13T15:56:23;4.15;;;1.70;;
81124;SDS011;71444;52.114;5.424;2023-07-13T15:59:05;4.82;;;1.52;;
81124;SDS011;71444;52.114;5.424;2023-07-13T16:01:52;3.95;;;1.70;;
81124;SDS011;71444;52.114;5.424;2023-07-13T16:04:32;5.38;;;1.58;;
81124;SDS011;71444;52.114;5.424;2023-07-13T16:07:12;3.45;;;1.45;;
81124;SDS011;71444;52.114;5.424;2023-07-13T16:09:55;5.97;;;1.85;;
81124;SDS011;71444;52.114;5.424;2023-07-13T16:12:35;5.60;;;1.33;;
81124;SDS011;71444;52.114;5.424;2023-07-13T16:15:16;4.57;;;1.50;;
81124;SDS011;71444;52.114;5.424;2023-07-13T16:17:59;5.93;;;1.70;;
81124;SDS011;71444;52.114;5.424;2023-07-13T16:20:39;5.60;;;1.50;;
81124;SDS011;71444;52.114;5.424;2023-07-13T16:23:21;5.60;;;1.70;;
81124;SDS011;71444;52.114;5.424;2023-07-13T16:26:01;4.72;;;1.80;;
81124;SDS011;71444;52.114;5.424;2023-07-13T16:28:49;5.90;;;1.60;;
81124;SDS011;71444;52.114;5.424;2023-07-13T16:31:38;5.57;;;1.55;;
81124;SDS011;71444;52.114;5.424;2023-07-13T16:34:17;3.80;;;1.38;;
81124;SDS011;71444;52.114;5.424;2023-07-13T16:36:57;4.80;;;1.40;;
81124;SDS011;71444;52.114;5.424;2023-07-13T16:39:37;3.25;;;1.17;;
81124;SDS011;71444;52.114;5.424;2023-07-13T16:42:22;3.08;;;1.40;;
81124;SDS011;71444;52.114;5.424;2023-07-13T16:45:03;6.13;;;1.52;;
81124;SDS011;71444;52.114;5.424;2023-07-13T16:47:43;3.00;;;1.60;;
81124;SDS011;71444;52.114;5.424;2023-07-13T16:50:29;4.75;;;1.17;;
81124;SDS011;71444;52.114;5.424;2023-07-13T16:53:15;6.07;;;1.60;;
81124;SDS011;71444;52.114;5.424;2023-07-13T16:56:02;3.80;;;1.58;;
81124;SDS011;71444;52.114;5.424;2023-07-13T16:58:44;4.47;;;1.60;;
81124;SDS011;71444;52.114;5.424;2023-07-13T17:01:24;5.05;;;1.60;;
81124;SDS011;71444;52.114;5.424;2023-07-13T17:04:08;3.78;;;1.42;;
81124;SDS011;71444;52.114;5.424;2023-07-13T17:06:58;5.53;;;2.38;;
81124;SDS011;71444;52.114;5.424;2023-07-13T17:09:38;4.63;;;1.38;;
81124;SDS011;71444;52.114;5.424;2023-07-13T17:12:23;5.80;;;1.52;;
81124;SDS011;71444;52.114;5.424;2023-07-13T17:15:03;4.00;;;1.25;;
81124;SDS011;71444;52.114;5.424;2023-07-13T17:17:49;4.45;;;1.52;;
81124;SDS011;71444;52.114;5.424;2023-07-13T17:20:31;3.47;;;1.30;;
81124;SDS011;71444;52.114;5.424;2023-07-13T17:23:21;2.88;;;1.30;;
81124;SDS011;71444;52.114;5.424;2023-07-13T17:26:04;6.60;;;1.58;;
81124;SDS011;71444;52.114;5.424;2023-07-13T17:28:44;3.25;;;1.15;;
81124;SDS011;71444;52.114;5.424;2023-07-13T17:31:24;4.80;;;1.27;;
81124;SDS011;71444;52.114;5.424;2023-07-13T17:34:04;2.95;;;1.40;;
81124;SDS011;71444;52.114;5.424;2023-07-13T17:36:49;5.28;;;1.60;;
81124;SDS011;71444;52.114;5.424;2023-07-13T17:39:29;3.55;;;1.20;;
81124;SDS011;71444;52.114;5.424;2023-07-13T17:42:10;4.60;;;1.33;;
81124;SDS011;71444;52.114;5.424;2023-07-13T17:44:51;3.92;;;1.50;;
81124;SDS011;71444;52.114;5.424;2023-07-13T17:47:31;5.93;;;1.48;;
81124;SDS011;71444;52.114;5.424;2023-07-13T17:50:12;3.20;;;1.27;;
81124;SDS011;71444;52.114;5.424;2023-07-13T17:52:54;4.05;;;1.25;;
81124;SDS011;71444;52.114;5.424;2023-07-13T17:55:34;3.65;;;1.35;;
81124;SDS011;71444;52.114;5.424;2023-07-13T17:58:25;4.70;;;1.80;;
81124;SDS011;71444;52.114;5.424;2023-07-13T18:01:12;5.97;;;1.40;;
81124;SDS011;71444;52.114;5.424;2023-07-13T18:03:58;5.95;;;1.48;;
81124;SDS011;71444;52.114;5.424;2023-07-13T18:06:42;3.63;;;1.23;;
81124;SDS011;71444;52.114;5.424;2023-07-13T18:09:41;5.80;;;1.58;;
81124;SDS011;71444;52.114;5.424;2023-07-13T18:12:32;3.17;;;1.35;;
81124;SDS011;71444;52.114;5.424;2023-07-13T18:15:12;5.00;;;1.40;;
81124;SDS011;71444;52.114;5.424;2023-07-13T18:18:02;4.25;;;1.50;;
81124;SDS011;71444;52.114;5.424;2023-07-13T18:20:46;7.95;;;1.80;;
81124;SDS011;71444;52.114;5.424;2023-07-13T18:23:35;3.67;;;1.48;;
81124;SDS011;71444;52.114;5.424;2023-07-13T18:26:18;4.18;;;1.67;;
81124;SDS011;71444;52.114;5.424;2023-07-13T18:29:07;4.20;;;1.55;;
81124;SDS011;71444;52.114;5.424;2023-07-13T18:31:55;3.70;;;1.55;;
81124;SDS011;71444;52.114;5.424;2023-07-13T18:34:44;3.17;;;1.33;;
81124;SDS011;71444;52.114;5.424;2023-07-13T18:37:27;5.97;;;1.55;;
81124;SDS011;71444;52.114;5.424;2023-07-13T18:40:14;4.18;;;1.63;;
81124;SDS011;71444;52.114;5.424;2023-07-13T18:42:56;4.90;;;1.42;;
81124;SDS011;71444;52.114;5.424;2023-07-13T18:45:44;3.00;;;1.40;;
81124;SDS011;71444;52.114;5.424;2023-07-13T18:48:32;6.35;;;1.77;;
81124;SDS011;71444;52.114;5.424;2023-07-13T18:51:12;4.55;;;1.70;;
81124;SDS011;71444;52.114;5.424;2023-07-13T18:53:53;6.60;;;1.65;;
81124;SDS011;71444;52.114;5.424;2023-07-13T18:56:40;6.53;;;1.90;;
81124;SDS011;71444;52.114;5.424;2023-07-13T18:59:20;7.68;;;1.92;;